Etusivu
METAR-TAF:

METAR-TAF

Lentoasemat :

Naritan kansainvälinen lentoasema

Tokio Narita, Japani

Leveyspiiri: 35-46N, Pituuspiiri: 140-23E, korkeus merenpinnasta: 41 m

Tämänhetkinen sää

Tämä raportti tehtiin 25 minuuttia sitten, kello 07.30 UTC
Tuuli 7 kn kaakosta
Lämpötila 27°C
Kosteus 51%
Ilmanpaine 1015 hPa
Näkyvyys 10 km tai enemmän
ei pilviä alle 1500 m:ssä eikä cumulonimbus-pilviä

METAR: RJAA 260730Z 14007KT CAVOK 27/16 Q1015 NOSIG RMK A2998

Aika: 16:55 (07:55 UTC)

Sääennuste

Tämä raportti tehtiin 2 tuntia ja 50 minuuttia sitten, kello 05.05 UTC
Ennuste voimassa 26. päivästä klo 06 UTC - 27. päivään klo 12 UTC
Tuuli 8 kn kaakosta
Näkyvyys 10 km tai enemmän
Muutamia pilviä 3000 ft:n korkeudessa

TAF: RJAA 260505Z 2606/2712 14008KT 9999 FEW030

Säähavainnot ja -ennusteet yli 4000 lentoasemalta (METAR- ja TAF-raportit).

Käytössä olevat sääasemat on merkitty karttaan keltaisilla ja punaisilla pisteillä.

Aseta hiiri pisteen päälle nähdäksesi sääaseman nimen.

Klikkaa sitten nähdäksesi säähavainnot ja -ennusteet.

Kartan vaihtaminen: klikkaa mustalla rastilla varustettuja vihreitä pisteitä, niin voit zoomata sisään; viivalla varustettua vihreää pistettä, niin voit zoomata ulos tai vihreitä nuolia, niin pääset viereisille kartoille.


METAR-TAF: